createdAt,value
2022-08-10T00:03:02.065Z,70.5
2022-08-10T00:05:53.448Z,70.9
2022-08-10T00:08:41.185Z,71.4
2022-08-10T00:11:28.724Z,71.4
2022-08-10T00:14:16.352Z,71.5
2022-08-10T00:17:04.214Z,71.6
2022-08-10T00:20:03.309Z,71.6
2022-08-10T00:22:58.168Z,71.5
2022-08-10T00:25:46.074Z,71.4
2022-08-10T00:28:34.732Z,71.5
2022-08-10T00:31:23.615Z,71.3
2022-08-10T00:34:11.084Z,71.5
2022-08-10T00:36:58.540Z,71.6
2022-08-10T00:39:47.169Z,71.8
2022-08-10T00:42:35.983Z,72
2022-08-10T00:45:23.925Z,72.2
2022-08-10T00:48:11.609Z,72.1
2022-08-10T00:50:59.315Z,72.2
2022-08-10T00:53:47.436Z,72.5
2022-08-10T00:57:16.290Z,72.6
2022-08-10T01:00:06.005Z,72.8
2022-08-10T01:02:54.966Z,72.8
2022-08-10T01:05:51.621Z,73.5
2022-08-10T01:08:47.921Z,73.1
2022-08-10T01:12:34.136Z,73.4
2022-08-10T01:15:39.869Z,72.8
2022-08-10T01:18:38.198Z,72.9
2022-08-10T01:21:32.487Z,73
2022-08-10T01:24:41.290Z,73.1
2022-08-10T01:27:56.725Z,73.4
2022-08-10T01:30:59.696Z,73.5
2022-08-10T01:33:58.418Z,73.8
2022-08-10T01:36:59.489Z,74.9
2022-08-10T01:39:52.290Z,74.7
2022-08-10T01:42:43.685Z,75.3
2022-08-10T01:45:45.647Z,75.9
2022-08-10T01:48:40.482Z,74.9
2022-08-10T01:51:35.270Z,75.4
2022-08-10T01:54:27.456Z,76.4
2022-08-10T01:57:16.177Z,75.2
2022-08-10T02:00:06.084Z,75.3
2022-08-10T02:02:57.288Z,75.8
2022-08-10T02:05:46.950Z,75.1
2022-08-10T02:08:39.396Z,74.9
2022-08-10T02:11:30.849Z,75.4
2022-08-10T02:14:57.290Z,76.1
2022-08-10T02:17:58.664Z,75.9
2022-08-10T02:20:51.355Z,76.2
2022-08-10T02:23:40.695Z,76.2
2022-08-10T02:26:30.295Z,76.1
2022-08-10T02:29:18.490Z,76.1
2022-08-10T02:32:06.959Z,76.1
2022-08-10T02:34:59.195Z,76.2
2022-08-10T02:37:51.085Z,77
2022-08-10T02:45:14.972Z,77.7
2022-08-10T02:48:26.354Z,76.2
2022-08-10T02:52:07.439Z,76.6
2022-08-10T02:55:06.064Z,76.7
2022-08-10T02:58:16.565Z,77.4
2022-08-10T03:01:11.431Z,76.7
2022-08-10T03:04:04.648Z,76.3
2022-08-10T03:06:57.176Z,75.8
2022-08-10T03:09:48.817Z,75.9
2022-08-10T03:12:39.633Z,76
2022-08-10T03:15:29.074Z,76.7
2022-08-10T03:18:18.415Z,76.9
2022-08-10T03:21:11.926Z,76.6
2022-08-10T03:24:01.961Z,76.5
2022-08-10T03:26:52.878Z,76.8
2022-08-10T03:30:30.023Z,77.5
2022-08-10T03:33:21.214Z,77.6
2022-08-10T03:36:43.119Z,77.4
2022-08-10T03:39:34.248Z,77.4
2022-08-10T03:42:21.993Z,77.1
2022-08-10T03:45:11.700Z,77.1
2022-08-10T03:48:00.636Z,77.5
2022-08-10T03:50:52.787Z,78
2022-08-10T03:54:04.804Z,77.8
2022-08-10T03:56:55.440Z,78.4
2022-08-10T03:59:43.106Z,78.4
2022-08-10T04:02:44.343Z,78.4
2022-08-10T04:05:38.651Z,78.3
2022-08-10T04:08:26.746Z,79
2022-08-10T04:11:14.489Z,78.9
2022-08-10T04:14:01.949Z,79.1
2022-08-10T04:16:50.436Z,79.5
2022-08-10T04:19:37.949Z,79.6
2022-08-10T04:22:30.945Z,80.1
2022-08-10T04:25:20.040Z,80.7
2022-08-10T04:28:09.981Z,80.4
2022-08-10T04:30:58.283Z,80.1
2022-08-10T04:33:49.402Z,80
2022-08-10T04:36:39.581Z,80
2022-08-10T04:39:28.946Z,80.1
2022-08-10T04:42:16.716Z,79.9
2022-08-10T04:45:04.481Z,80.2
2022-08-10T04:48:00.715Z,80.6
2022-08-10T04:50:51.264Z,80.6
2022-08-10T04:54:04.827Z,81
2022-08-10T04:56:54.631Z,81.1
2022-08-10T04:59:42.107Z,81.2
2022-08-10T05:02:32.145Z,81
2022-08-10T05:05:20.428Z,80.9
2022-08-10T05:08:08.064Z,81
2022-08-10T05:10:55.667Z,80.9
2022-08-10T05:13:43.219Z,81.1
2022-08-10T05:16:32.047Z,80.9
2022-08-10T05:20:03.031Z,80.9
2022-08-10T05:22:55.470Z,80.9
2022-08-10T05:25:43.244Z,81.2
2022-08-10T05:28:30.887Z,81.2
2022-08-10T05:31:23.930Z,81.3
2022-08-10T05:34:20.242Z,81.2
2022-08-10T05:38:09.994Z,81
2022-08-10T05:41:00.688Z,80.6
2022-08-10T05:43:48.800Z,81
2022-08-10T05:46:36.659Z,80.9
2022-08-10T05:49:24.318Z,80.9
2022-08-10T05:52:11.929Z,81.1
2022-08-10T05:55:02.944Z,81.1
2022-08-10T05:57:52.449Z,81
2022-08-10T06:00:45.929Z,81.1
2022-08-10T06:03:40.900Z,80.8
2022-08-10T06:06:36.227Z,80.5
2022-08-10T06:09:25.936Z,80.1
2022-08-10T06:12:27.318Z,79.9
2022-08-10T06:15:21.750Z,79.7
2022-08-10T06:18:41.560Z,79.4
2022-08-10T06:21:29.388Z,79.4
2022-08-10T06:24:18.259Z,79.4
2022-08-10T06:27:14.198Z,79
2022-08-10T06:30:02.476Z,79
2022-08-10T06:32:52.215Z,79
2022-08-10T06:35:43.059Z,78.7
2022-08-10T06:38:33.837Z,78.4
2022-08-10T06:41:23.875Z,78.1
2022-08-10T06:45:11.000Z,77
2022-08-10T06:48:02.138Z,77.3
2022-08-10T06:50:58.245Z,76.1
2022-08-10T06:53:53.547Z,75.4
2022-08-10T06:57:08.106Z,75.3
2022-08-10T07:00:09.847Z,73.3
2022-08-10T07:02:59.582Z,74
2022-08-10T07:05:54.171Z,73.9
2022-08-10T07:08:42.991Z,72.1
2022-08-10T07:11:32.270Z,71.1
2022-08-10T07:14:20.907Z,70.3
2022-08-10T07:17:15.203Z,69.2
2022-08-10T07:20:07.892Z,68.4
2022-08-10T07:23:55.880Z,68.2
2022-08-10T07:26:52.342Z,68
2022-08-10T07:29:53.806Z,68
2022-08-10T07:32:44.221Z,67.9
2022-08-10T07:35:42.798Z,66.5
2022-08-10T07:38:34.146Z,66.2
2022-08-10T07:41:23.690Z,67.5
2022-08-10T07:44:16.614Z,67.2
2022-08-10T07:47:06.265Z,67.5
2022-08-10T07:49:56.393Z,66.4
2022-08-10T07:52:49.765Z,65.8
2022-08-10T07:56:04.830Z,64.7
2022-08-10T07:59:03.990Z,64.2
2022-08-10T08:01:55.073Z,62
2022-08-10T08:04:44.867Z,64.3
2022-08-10T08:07:35.470Z,62.4
2022-08-10T08:10:24.943Z,61.9
2022-08-10T08:13:14.420Z,62.4
2022-08-10T08:16:19.734Z,62.2
2022-08-10T08:19:28.283Z,61.9
2022-08-10T08:24:06.197Z,61.5
2022-08-10T08:27:07.024Z,61.8
2022-08-10T08:29:57.417Z,61.6
2022-08-10T08:32:47.334Z,58.8
2022-08-10T08:35:37.298Z,57.3
2022-08-10T08:38:29.908Z,58.9
2022-08-10T08:41:22.544Z,57.8
2022-08-10T08:44:34.314Z,57.9
2022-08-10T08:48:04.505Z,57.1
2022-08-10T08:51:10.878Z,57
2022-08-10T08:54:10.802Z,53.8
2022-08-10T08:57:08.915Z,53.8
2022-08-10T09:00:07.011Z,54.3
2022-08-10T09:03:01.981Z,54.3
2022-08-10T09:06:11.513Z,53.3
2022-08-10T09:09:16.769Z,52.8
2022-08-10T09:12:20.692Z,52.6
2022-08-10T09:15:40.656Z,51.8
2022-08-10T09:18:39.010Z,51.7
2022-08-10T09:21:35.036Z,51.3
2022-08-10T09:24:39.709Z,51.4
2022-08-10T09:27:35.436Z,50.7
2022-08-10T09:30:32.341Z,49.4
2022-08-10T09:36:25.382Z,50.7
2022-08-10T09:40:06.966Z,50.2
2022-08-10T09:44:01.521Z,48.9
2022-08-10T09:46:59.982Z,50
2022-08-10T09:50:04.903Z,46.9
2022-08-10T09:53:06.049Z,48.8
2022-08-10T09:56:17.138Z,49.1
2022-08-10T09:59:26.737Z,47.6
2022-08-10T10:02:54.146Z,45.8
2022-08-10T10:05:59.627Z,44.1
2022-08-10T10:08:58.381Z,43.6
2022-08-10T10:12:09.998Z,43.5
2022-08-10T10:15:08.316Z,42.8
2022-08-10T10:18:06.145Z,43.4
2022-08-10T10:21:07.801Z,43.7
2022-08-10T10:24:20.261Z,45.2
2022-08-10T10:27:19.016Z,47.1
2022-08-10T10:30:21.224Z,45.4
2022-08-10T10:33:13.103Z,47
2022-08-10T10:36:10.430Z,44
2022-08-10T10:39:01.527Z,44.2
2022-08-10T10:42:03.186Z,43.6
2022-08-10T10:45:02.000Z,42.2
2022-08-10T10:48:01.521Z,42.8
2022-08-10T10:51:10.859Z,40.9
2022-08-10T10:54:06.630Z,39.4
2022-08-10T10:56:58.052Z,39.6
2022-08-10T10:59:57.623Z,38.6
2022-08-10T11:02:52.478Z,37.1
2022-08-10T11:06:00.822Z,36.2
2022-08-10T11:09:00.182Z,34.3
2022-08-10T11:12:01.885Z,33.5
2022-08-10T11:15:07.112Z,33.8
2022-08-10T11:18:01.588Z,32.6
2022-08-10T11:20:56.656Z,33.1
2022-08-10T11:24:48.457Z,32.3
2022-08-10T11:27:43.289Z,32.2
2022-08-10T11:30:39.845Z,33
2022-08-10T11:33:42.707Z,29.3
2022-08-10T11:36:49.181Z,30.5
2022-08-10T11:39:48.833Z,31.4
2022-08-10T11:42:45.256Z,30.1
2022-08-10T11:45:42.421Z,30.4
2022-08-10T11:48:53.125Z,29.7
2022-08-10T11:51:51.221Z,30.8
2022-08-10T11:54:43.023Z,31.3
2022-08-10T11:57:53.111Z,32.6
2022-08-10T12:02:41.125Z,34
2022-08-10T12:05:54.801Z,34.3
2022-08-10T12:10:02.305Z,34.9
2022-08-10T12:12:58.476Z,37.2
2022-08-10T12:15:53.246Z,33.2
2022-08-10T12:18:48.554Z,32.1
2022-08-10T12:21:48.291Z,33.7
2022-08-10T12:24:44.685Z,33.3
2022-08-10T12:27:37.021Z,32.2
2022-08-10T12:30:31.490Z,30.7
2022-08-10T12:33:27.725Z,29.7
2022-08-10T12:36:24.158Z,29.6
2022-08-10T12:39:17.043Z,29.5
2022-08-10T12:42:11.980Z,29.6
2022-08-10T12:45:33.955Z,29.3
2022-08-10T12:48:31.151Z,28.6
2022-08-10T12:51:24.255Z,29
2022-08-10T12:54:15.178Z,30.2
2022-08-10T12:57:04.997Z,31
2022-08-10T12:59:55.815Z,32
2022-08-10T13:02:48.755Z,32.7
2022-08-10T13:06:02.686Z,33.3
2022-08-10T13:08:54.143Z,32.3
2022-08-10T13:12:36.343Z,31.5
2022-08-10T13:15:48.888Z,30.8
2022-08-10T13:18:41.950Z,29.6
2022-08-10T13:21:31.455Z,26.5
2022-08-10T13:24:21.447Z,26.8
2022-08-10T13:27:26.442Z,27.9
2022-08-10T13:30:50.894Z,26.9
2022-08-10T13:34:39.246Z,27.2
2022-08-10T13:37:31.434Z,28.9
2022-08-10T13:40:21.173Z,26.6
2022-08-10T13:43:11.663Z,27
2022-08-10T13:46:01.566Z,26.7
2022-08-10T13:48:51.833Z,25.7
2022-08-10T13:51:54.575Z,26.9
2022-08-10T13:54:45.734Z,27.4
2022-08-10T13:57:35.663Z,27.7
2022-08-10T14:00:34.381Z,27.3
2022-08-10T14:03:28.416Z,26.5
2022-08-10T14:06:22.796Z,26.1
2022-08-10T14:09:19.177Z,25.9
2022-08-10T14:12:15.051Z,24
2022-08-10T14:15:04.635Z,24.7
2022-08-10T14:17:57.099Z,23.7
2022-08-10T14:20:47.225Z,23.3
2022-08-10T14:23:37.023Z,24.5
2022-08-10T14:26:26.546Z,22.3
2022-08-10T14:29:20.150Z,23.5
2022-08-10T14:32:10.080Z,23.6
2022-08-10T14:36:19.807Z,24.1
2022-08-10T14:39:21.826Z,25.3
2022-08-10T14:42:21.367Z,24.1
2022-08-10T14:45:16.735Z,23.3
2022-08-10T14:48:08.291Z,23.4
2022-08-10T14:51:01.758Z,24.2
2022-08-10T14:53:51.880Z,23.3
2022-08-10T14:56:49.052Z,22.8
2022-08-10T15:00:25.117Z,24.3
2022-08-10T15:04:01.146Z,23.9
2022-08-10T15:06:55.720Z,23.5
2022-08-10T15:10:03.772Z,23.3
2022-08-10T15:12:53.926Z,23.6
2022-08-10T15:16:09.433Z,24.2
2022-08-10T15:19:02.705Z,24.7
2022-08-10T15:22:59.241Z,25.4
2022-08-10T15:25:54.902Z,26.2
2022-08-10T15:29:05.943Z,26.6
2022-08-10T15:32:12.941Z,27.4
2022-08-10T15:35:33.434Z,27.7
2022-08-10T15:38:57.584Z,27
2022-08-10T15:41:58.955Z,26.4
2022-08-10T15:44:53.422Z,25.1
2022-08-10T15:47:45.694Z,25.6
2022-08-10T15:50:40.229Z,24.8
2022-08-10T15:53:33.404Z,25
2022-08-10T15:56:41.188Z,25
2022-08-10T15:59:34.502Z,24.3
2022-08-10T16:02:28.377Z,23.8
2022-08-10T16:06:00.909Z,23.4
2022-08-10T16:08:56.895Z,22.7
2022-08-10T16:13:02.571Z,23.2
2022-08-10T16:16:40.219Z,23.4
2022-08-10T16:19:33.664Z,23.2
2022-08-10T16:22:35.794Z,22.5
2022-08-10T16:25:25.150Z,22.5
2022-08-10T16:28:42.041Z,22.8
2022-08-10T16:31:35.450Z,23.6
2022-08-10T16:34:27.654Z,23.3
2022-08-10T16:37:19.353Z,23
2022-08-10T16:40:08.131Z,22.8
2022-08-10T16:42:58.464Z,22.3
2022-08-10T16:45:48.381Z,22.7
2022-08-10T16:48:49.607Z,23.2
2022-08-10T16:51:39.388Z,23.6
2022-08-10T16:54:32.777Z,22.4
2022-08-10T16:57:25.374Z,23.4
2022-08-10T17:00:17.098Z,23.6
2022-08-10T17:04:04.896Z,23.4
2022-08-10T17:07:00.574Z,23.6
2022-08-10T17:09:53.370Z,23.7
2022-08-10T17:12:41.986Z,23.5
2022-08-10T17:15:36.114Z,23.3
2022-08-10T17:18:28.282Z,24.1
2022-08-10T17:21:22.719Z,24.7
2022-08-10T17:24:15.711Z,24.5
2022-08-10T17:28:05.678Z,25
2022-08-10T17:30:58.555Z,26.8
2022-08-10T17:33:52.372Z,27
2022-08-10T17:36:44.745Z,28
2022-08-10T17:39:37.115Z,28.9
2022-08-10T17:42:32.756Z,29.5
2022-08-10T17:45:48.199Z,30.1
2022-08-10T17:48:39.132Z,30.9
2022-08-10T17:51:30.978Z,30.7
2022-08-10T17:54:19.464Z,32.3
2022-08-10T17:57:12.453Z,32.5
2022-08-10T18:00:04.926Z,32.8
2022-08-10T18:02:58.021Z,32.8
2022-08-10T18:05:47.161Z,33.8
2022-08-10T18:08:47.691Z,33.7
2022-08-10T18:11:43.010Z,34.2
2022-08-10T18:14:35.296Z,34.5
2022-08-10T18:17:23.974Z,35.3
2022-08-10T18:20:19.874Z,35.7
2022-08-10T18:23:08.770Z,35.9
2022-08-10T18:25:58.364Z,36
2022-08-10T18:28:50.546Z,36.7
2022-08-10T18:31:41.708Z,36.3
2022-08-10T18:34:30.208Z,36.9
2022-08-10T18:37:20.484Z,37.6
2022-08-10T18:40:10.580Z,37
2022-08-10T18:43:00.263Z,37.7
2022-08-10T18:45:51.342Z,38
2022-08-10T18:48:41.761Z,37.8
2022-08-10T18:51:46.773Z,37.8
2022-08-10T18:54:44.441Z,37.9
2022-08-10T18:57:36.355Z,39.1
2022-08-10T19:00:43.321Z,40.5
2022-08-10T19:03:53.984Z,41.6
2022-08-10T19:06:58.482Z,41.8
2022-08-10T19:10:06.269Z,42.2
2022-08-10T19:13:01.784Z,42
2022-08-10T19:15:58.841Z,41.6
2022-08-10T19:19:02.510Z,41.4
2022-08-10T19:22:18.807Z,41.2
2022-08-10T19:25:10.952Z,42
2022-08-10T19:28:07.711Z,42
2022-08-10T19:31:00.793Z,42.2
2022-08-10T19:34:11.527Z,41
2022-08-10T19:37:15.497Z,41.8
2022-08-10T19:40:13.000Z,42.2
2022-08-10T19:43:12.351Z,42.8
2022-08-10T19:46:14.931Z,42.2
2022-08-10T19:49:10.029Z,42.9
2022-08-10T19:52:10.812Z,42.2
2022-08-10T19:55:12.427Z,43
2022-08-10T19:58:10.342Z,43
2022-08-10T20:01:05.841Z,43.1
2022-08-10T20:03:53.708Z,42.9
2022-08-10T20:06:47.851Z,43
2022-08-10T20:09:54.116Z,42.9
2022-08-10T20:12:51.222Z,42.5
2022-08-10T20:15:51.829Z,42.1
2022-08-10T20:18:45.789Z,41.9
2022-08-10T20:21:38.892Z,42.3
2022-08-10T20:24:32.983Z,42.6
2022-08-10T20:27:59.188Z,42.5
2022-08-10T20:30:58.650Z,42.5
2022-08-10T20:33:58.629Z,42.9
2022-08-10T20:36:54.480Z,43
2022-08-10T20:39:45.098Z,43.4
2022-08-10T20:42:41.787Z,43.6
2022-08-10T20:46:07.107Z,44.1
2022-08-10T20:49:06.219Z,44
2022-08-10T20:52:07.572Z,44.1
2022-08-10T20:54:56.734Z,44.8
2022-08-10T20:57:56.583Z,45.1
2022-08-10T21:01:04.204Z,44.6
2022-08-10T21:04:01.614Z,45.1
2022-08-10T21:06:58.209Z,45.4
2022-08-10T21:09:57.454Z,45.6
2022-08-10T21:12:53.998Z,45.3
2022-08-10T21:15:55.631Z,46.1
2022-08-10T21:18:57.560Z,46.5
2022-08-10T21:22:18.403Z,46.4
2022-08-10T21:25:42.041Z,46.6
2022-08-10T21:28:39.001Z,47.2
2022-08-10T21:31:46.154Z,47.2
2022-08-10T21:34:53.038Z,47.4
2022-08-10T21:37:56.721Z,47.6
2022-08-10T21:41:17.070Z,47.6
2022-08-10T21:44:56.670Z,48.2
2022-08-10T21:48:34.347Z,48.6
2022-08-10T21:52:04.009Z,48.9
2022-08-10T21:55:57.065Z,49.3
2022-08-10T21:59:24.438Z,49.9
2022-08-10T22:02:49.777Z,50
2022-08-10T22:06:12.083Z,50.1
2022-08-10T22:09:42.727Z,50.6
2022-08-10T22:31:27.153Z,52.1
2022-08-10T22:35:07.099Z,52.6
2022-08-10T22:39:14.278Z,53
2022-08-10T22:42:59.299Z,53.4
2022-08-10T22:46:39.008Z,53.2
2022-08-10T22:50:07.502Z,54.2
2022-08-10T22:53:04.043Z,54.5
2022-08-10T22:55:54.661Z,54.8
2022-08-10T22:59:14.243Z,54.8
2022-08-10T23:02:13.317Z,55.1
2022-08-10T23:05:13.205Z,56
2022-08-10T23:08:02.182Z,55.1
2022-08-10T23:10:58.863Z,55.4
2022-08-10T23:13:50.140Z,55.7
2022-08-10T23:16:46.030Z,55.8
2022-08-10T23:20:09.881Z,56.2
2022-08-10T23:23:09.039Z,55.2
2022-08-10T23:26:04.752Z,55.1
2022-08-10T23:29:05.276Z,55.5
2022-08-10T23:32:07.669Z,55.8
2022-08-10T23:36:05.512Z,55.6
2022-08-10T23:39:26.370Z,55.5
2022-08-10T23:42:19.688Z,55.9
2022-08-10T23:45:08.536Z,56.3
2022-08-10T23:48:00.123Z,56.6
2022-08-10T23:50:53.372Z,56.6
2022-08-10T23:53:49.082Z,57.8
2022-08-10T23:56:37.936Z,58.4
2022-08-10T23:59:28.458Z,58.7
